sensor_id;sensor_type;location;lat;lon;timestamp;P1;durP1;ratioP1;P2;durP2;ratioP2
69253;SDS011;56364;41.816;12.448;2022-10-16T00:01:16;21.48;;;7.15;;
69253;SDS011;56364;41.816;12.448;2022-10-16T00:03:43;13.23;;;5.72;;
69253;SDS011;56364;41.816;12.448;2022-10-16T00:06:10;16.75;;;6.80;;
69253;SDS011;56364;41.816;12.448;2022-10-16T00:08:36;14.82;;;6.18;;
69253;SDS011;56364;41.816;12.448;2022-10-16T00:11:03;18.90;;;6.70;;
69253;SDS011;56364;41.816;12.448;2022-10-16T00:13:31;25.33;;;7.30;;
69253;SDS011;56364;41.816;12.448;2022-10-16T00:15:57;13.07;;;5.85;;
69253;SDS011;56364;41.816;12.448;2022-10-16T00:18:24;15.45;;;6.43;;
69253;SDS011;56364;41.816;12.448;2022-10-16T00:20:50;16.38;;;6.45;;
69253;SDS011;56364;41.816;12.448;2022-10-16T00:25:44;16.98;;;6.80;;
69253;SDS011;56364;41.816;12.448;2022-10-16T00:28:10;17.45;;;6.85;;
69253;SDS011;56364;41.816;12.448;2022-10-16T00:30:39;19.17;;;7.07;;
69253;SDS011;56364;41.816;12.448;2022-10-16T00:33:05;15.55;;;6.30;;
69253;SDS011;56364;41.816;12.448;2022-10-16T00:35:31;21.77;;;7.70;;
69253;SDS011;56364;41.816;12.448;2022-10-16T00:37:59;16.42;;;6.63;;
69253;SDS011;56364;41.816;12.448;2022-10-16T00:40:25;17.02;;;6.93;;
69253;SDS011;56364;41.816;12.448;2022-10-16T00:42:51;17.05;;;6.40;;
69253;SDS011;56364;41.816;12.448;2022-10-16T00:45:19;17.25;;;7.00;;
69253;SDS011;56364;41.816;12.448;2022-10-16T00:47:45;21.77;;;7.10;;
69253;SDS011;56364;41.816;12.448;2022-10-16T00:50:26;19.98;;;7.85;;
69253;SDS011;56364;41.816;12.448;2022-10-16T00:52:53;21.08;;;8.02;;
69253;SDS011;56364;41.816;12.448;2022-10-16T00:55:19;23.52;;;8.75;;
69253;SDS011;56364;41.816;12.448;2022-10-16T00:57:46;19.05;;;7.90;;
69253;SDS011;56364;41.816;12.448;2022-10-16T01:00:14;24.17;;;8.30;;
69253;SDS011;56364;41.816;12.448;2022-10-16T01:02:41;22.23;;;8.45;;
69253;SDS011;56364;41.816;12.448;2022-10-16T01:05:07;18.48;;;7.63;;
69253;SDS011;56364;41.816;12.448;2022-10-16T01:07:56;25.95;;;10.20;;
69253;SDS011;56364;41.816;12.448;2022-10-16T01:20:30;18.23;;;7.88;;
69253;SDS011;56364;41.816;12.448;2022-10-16T01:22:59;24.77;;;9.05;;
69253;SDS011;56364;41.816;12.448;2022-10-16T01:25:40;23.67;;;7.75;;
69253;SDS011;56364;41.816;12.448;2022-10-16T01:28:09;21.98;;;8.23;;
69253;SDS011;56364;41.816;12.448;2022-10-16T01:30:37;20.48;;;9.60;;
69253;SDS011;56364;41.816;12.448;2022-10-16T01:35:48;22.42;;;7.63;;
69253;SDS011;56364;41.816;12.448;2022-10-16T01:38:19;22.20;;;7.50;;
69253;SDS011;56364;41.816;12.448;2022-10-16T01:40:51;24.70;;;8.25;;
69253;SDS011;56364;41.816;12.448;2022-10-16T01:43:22;19.85;;;7.97;;
69253;SDS011;56364;41.816;12.448;2022-10-16T01:45:49;21.73;;;9.07;;
69253;SDS011;56364;41.816;12.448;2022-10-16T01:48:17;21.05;;;8.32;;
69253;SDS011;56364;41.816;12.448;2022-10-16T01:50:44;20.52;;;8.18;;
69253;SDS011;56364;41.816;12.448;2022-10-16T01:53:13;19.65;;;7.70;;
69253;SDS011;56364;41.816;12.448;2022-10-16T01:55:41;21.75;;;8.25;;
69253;SDS011;56364;41.816;12.448;2022-10-16T01:58:10;17.60;;;8.50;;
69253;SDS011;56364;41.816;12.448;2022-10-16T02:00:38;18.23;;;7.72;;
69253;SDS011;56364;41.816;12.448;2022-10-16T02:03:04;20.40;;;8.40;;
69253;SDS011;56364;41.816;12.448;2022-10-16T02:05:34;18.85;;;8.48;;
69253;SDS011;56364;41.816;12.448;2022-10-16T02:08:04;20.45;;;8.30;;
69253;SDS011;56364;41.816;12.448;2022-10-16T02:10:30;15.20;;;6.68;;
69253;SDS011;56364;41.816;12.448;2022-10-16T02:13:17;13.80;;;6.95;;
69253;SDS011;56364;41.816;12.448;2022-10-16T02:15:44;16.02;;;7.20;;
69253;SDS011;56364;41.816;12.448;2022-10-16T02:18:10;18.77;;;7.38;;
69253;SDS011;56364;41.816;12.448;2022-10-16T02:20:40;18.33;;;7.63;;
69253;SDS011;56364;41.816;12.448;2022-10-16T02:23:09;17.60;;;7.00;;
69253;SDS011;56364;41.816;12.448;2022-10-16T02:25:38;16.50;;;6.90;;
69253;SDS011;56364;41.816;12.448;2022-10-16T02:28:09;16.95;;;6.88;;
69253;SDS011;56364;41.816;12.448;2022-10-16T02:30:45;14.82;;;6.15;;
69253;SDS011;56364;41.816;12.448;2022-10-16T02:33:16;17.85;;;6.20;;
69253;SDS011;56364;41.816;12.448;2022-10-16T02:35:43;14.40;;;6.40;;
69253;SDS011;56364;41.816;12.448;2022-10-16T02:38:10;16.58;;;6.63;;
69253;SDS011;56364;41.816;12.448;2022-10-16T02:43:03;13.80;;;5.50;;
69253;SDS011;56364;41.816;12.448;2022-10-16T02:45:29;14.35;;;5.65;;
69253;SDS011;56364;41.816;12.448;2022-10-16T02:47:56;13.40;;;6.05;;
69253;SDS011;56364;41.816;12.448;2022-10-16T02:52:49;10.93;;;5.55;;
69253;SDS011;56364;41.816;12.448;2022-10-16T02:55:15;16.83;;;6.43;;
69253;SDS011;56364;41.816;12.448;2022-10-16T02:57:41;18.35;;;5.90;;
69253;SDS011;56364;41.816;12.448;2022-10-16T03:00:08;14.45;;;5.80;;
69253;SDS011;56364;41.816;12.448;2022-10-16T03:02:35;13.43;;;5.85;;
69253;SDS011;56364;41.816;12.448;2022-10-16T03:05:01;10.57;;;5.47;;
69253;SDS011;56364;41.816;12.448;2022-10-16T03:07:27;13.82;;;5.95;;
69253;SDS011;56364;41.816;12.448;2022-10-16T03:09:53;20.58;;;5.53;;
69253;SDS011;56364;41.816;12.448;2022-10-16T03:12:20;11.57;;;4.90;;
69253;SDS011;56364;41.816;12.448;2022-10-16T03:14:46;17.10;;;6.00;;
69253;SDS011;56364;41.816;12.448;2022-10-16T03:19:39;11.90;;;5.13;;
69253;SDS011;56364;41.816;12.448;2022-10-16T03:22:05;14.20;;;5.55;;
69253;SDS011;56364;41.816;12.448;2022-10-16T03:24:31;12.18;;;5.47;;
69253;SDS011;56364;41.816;12.448;2022-10-16T03:26:57;10.27;;;4.72;;
69253;SDS011;56364;41.816;12.448;2022-10-16T03:29:23;14.32;;;4.63;;
69253;SDS011;56364;41.816;12.448;2022-10-16T03:31:50;11.07;;;5.35;;
69253;SDS011;56364;41.816;12.448;2022-10-16T03:34:16;14.02;;;4.88;;
69253;SDS011;56364;41.816;12.448;2022-10-16T03:36:42;10.98;;;5.03;;
69253;SDS011;56364;41.816;12.448;2022-10-16T03:39:08;10.57;;;4.75;;
69253;SDS011;56364;41.816;12.448;2022-10-16T03:41:35;13.82;;;5.00;;
69253;SDS011;56364;41.816;12.448;2022-10-16T03:44:01;13.65;;;4.63;;
69253;SDS011;56364;41.816;12.448;2022-10-16T03:48:53;9.88;;;4.38;;
69253;SDS011;56364;41.816;12.448;2022-10-16T03:51:19;13.23;;;4.47;;
69253;SDS011;56364;41.816;12.448;2022-10-16T03:56:11;9.13;;;4.38;;
69253;SDS011;56364;41.816;12.448;2022-10-16T03:58:37;16.05;;;5.03;;
69253;SDS011;56364;41.816;12.448;2022-10-16T04:01:03;9.02;;;4.47;;
69253;SDS011;56364;41.816;12.448;2022-10-16T04:05:55;13.10;;;5.63;;
69253;SDS011;56364;41.816;12.448;2022-10-16T04:08:21;16.50;;;5.82;;
69253;SDS011;56364;41.816;12.448;2022-10-16T04:10:47;13.02;;;5.18;;
69253;SDS011;56364;41.816;12.448;2022-10-16T04:13:13;15.40;;;5.97;;
69253;SDS011;56364;41.816;12.448;2022-10-16T04:15:39;11.30;;;5.05;;
69253;SDS011;56364;41.816;12.448;2022-10-16T04:18:05;13.25;;;5.20;;
69253;SDS011;56364;41.816;12.448;2022-10-16T04:22:57;11.02;;;5.22;;
69253;SDS011;56364;41.816;12.448;2022-10-16T04:27:52;11.70;;;5.15;;
69253;SDS011;56364;41.816;12.448;2022-10-16T04:30:18;12.20;;;5.05;;
69253;SDS011;56364;41.816;12.448;2022-10-16T04:32:47;10.43;;;5.22;;
69253;SDS011;56364;41.816;12.448;2022-10-16T04:35:14;18.13;;;5.82;;
69253;SDS011;56364;41.816;12.448;2022-10-16T04:37:40;16.58;;;6.10;;
69253;SDS011;56364;41.816;12.448;2022-10-16T04:40:06;15.18;;;6.07;;
69253;SDS011;56364;41.816;12.448;2022-10-16T04:42:32;14.80;;;5.88;;
69253;SDS011;56364;41.816;12.448;2022-10-16T04:44:58;15.05;;;6.45;;
69253;SDS011;56364;41.816;12.448;2022-10-16T04:47:24;15.40;;;5.93;;
69253;SDS011;56364;41.816;12.448;2022-10-16T04:49:50;13.32;;;5.45;;
69253;SDS011;56364;41.816;12.448;2022-10-16T04:52:16;12.02;;;5.38;;
69253;SDS011;56364;41.816;12.448;2022-10-16T04:54:43;12.45;;;5.28;;
69253;SDS011;56364;41.816;12.448;2022-10-16T04:57:10;13.30;;;6.15;;
69253;SDS011;56364;41.816;12.448;2022-10-16T05:02:02;12.65;;;5.25;;
69253;SDS011;56364;41.816;12.448;2022-10-16T05:04:28;14.27;;;5.25;;
69253;SDS011;56364;41.816;12.448;2022-10-16T05:06:54;15.68;;;5.38;;
69253;SDS011;56364;41.816;12.448;2022-10-16T05:09:20;9.25;;;5.10;;
69253;SDS011;56364;41.816;12.448;2022-10-16T05:14:15;16.23;;;5.53;;
69253;SDS011;56364;41.816;12.448;2022-10-16T05:16:41;16.73;;;5.22;;
69253;SDS011;56364;41.816;12.448;2022-10-16T05:19:07;12.95;;;5.25;;
69253;SDS011;56364;41.816;12.448;2022-10-16T05:21:33;10.80;;;5.07;;
69253;SDS011;56364;41.816;12.448;2022-10-16T05:23:59;10.77;;;5.25;;
69253;SDS011;56364;41.816;12.448;2022-10-16T05:28:51;14.55;;;5.50;;
69253;SDS011;56364;41.816;12.448;2022-10-16T05:31:17;12.32;;;5.43;;
69253;SDS011;56364;41.816;12.448;2022-10-16T05:33:43;13.05;;;5.15;;
69253;SDS011;56364;41.816;12.448;2022-10-16T05:38:36;13.75;;;5.18;;
69253;SDS011;56364;41.816;12.448;2022-10-16T05:41:02;13.93;;;4.90;;
69253;SDS011;56364;41.816;12.448;2022-10-16T05:43:29;14.45;;;5.22;;
69253;SDS011;56364;41.816;12.448;2022-10-16T05:46:05;13.20;;;4.53;;
69253;SDS011;56364;41.816;12.448;2022-10-16T05:48:31;14.18;;;4.97;;
69253;SDS011;56364;41.816;12.448;2022-10-16T05:53:27;13.73;;;5.15;;
69253;SDS011;56364;41.816;12.448;2022-10-16T05:55:54;12.65;;;4.38;;
69253;SDS011;56364;41.816;12.448;2022-10-16T05:58:24;12.52;;;4.15;;
69253;SDS011;56364;41.816;12.448;2022-10-16T06:01:07;12.02;;;4.60;;
69253;SDS011;56364;41.816;12.448;2022-10-16T06:03:50;12.05;;;4.93;;
69253;SDS011;56364;41.816;12.448;2022-10-16T06:06:21;10.85;;;5.00;;
69253;SDS011;56364;41.816;12.448;2022-10-16T06:08:54;12.70;;;4.25;;
69253;SDS011;56364;41.816;12.448;2022-10-16T06:11:21;12.75;;;4.85;;
69253;SDS011;56364;41.816;12.448;2022-10-16T06:13:51;10.45;;;4.30;;
69253;SDS011;56364;41.816;12.448;2022-10-16T06:16:17;12.75;;;4.50;;
69253;SDS011;56364;41.816;12.448;2022-10-16T06:18:44;11.45;;;5.07;;
69253;SDS011;56364;41.816;12.448;2022-10-16T06:21:11;11.73;;;4.65;;
69253;SDS011;56364;41.816;12.448;2022-10-16T06:23:38;10.00;;;4.47;;
69253;SDS011;56364;41.816;12.448;2022-10-16T06:26:08;12.23;;;4.40;;
69253;SDS011;56364;41.816;12.448;2022-10-16T06:28:34;9.25;;;4.03;;
69253;SDS011;56364;41.816;12.448;2022-10-16T06:31:01;17.70;;;4.55;;
69253;SDS011;56364;41.816;12.448;2022-10-16T06:33:27;9.82;;;4.22;;
69253;SDS011;56364;41.816;12.448;2022-10-16T06:35:53;9.18;;;4.80;;
69253;SDS011;56364;41.816;12.448;2022-10-16T06:38:19;9.00;;;4.03;;
69253;SDS011;56364;41.816;12.448;2022-10-16T06:40:45;10.95;;;4.45;;
69253;SDS011;56364;41.816;12.448;2022-10-16T06:43:13;7.95;;;4.07;;
69253;SDS011;56364;41.816;12.448;2022-10-16T06:45:39;8.52;;;3.83;;
69253;SDS011;56364;41.816;12.448;2022-10-16T06:48:05;14.90;;;4.88;;
69253;SDS011;56364;41.816;12.448;2022-10-16T06:50:31;12.15;;;4.30;;
69253;SDS011;56364;41.816;12.448;2022-10-16T06:52:57;12.35;;;4.53;;
69253;SDS011;56364;41.816;12.448;2022-10-16T06:55:23;8.48;;;3.78;;
69253;SDS011;56364;41.816;12.448;2022-10-16T06:57:49;9.82;;;3.88;;
69253;SDS011;56364;41.816;12.448;2022-10-16T07:00:15;13.55;;;4.53;;
69253;SDS011;56364;41.816;12.448;2022-10-16T07:05:08;12.57;;;3.75;;
69253;SDS011;56364;41.816;12.448;2022-10-16T07:07:34;10.32;;;4.22;;
69253;SDS011;56364;41.816;12.448;2022-10-16T07:10:00;8.68;;;4.18;;
69253;SDS011;56364;41.816;12.448;2022-10-16T07:14:52;8.27;;;3.88;;
69253;SDS011;56364;41.816;12.448;2022-10-16T07:17:20;7.43;;;3.80;;
69253;SDS011;56364;41.816;12.448;2022-10-16T07:19:47;12.52;;;4.32;;
69253;SDS011;56364;41.816;12.448;2022-10-16T07:24:39;11.55;;;4.13;;
69253;SDS011;56364;41.816;12.448;2022-10-16T07:27:05;11.25;;;3.90;;
69253;SDS011;56364;41.816;12.448;2022-10-16T07:29:31;9.93;;;3.90;;
69253;SDS011;56364;41.816;12.448;2022-10-16T07:34:23;10.35;;;3.83;;
69253;SDS011;56364;41.816;12.448;2022-10-16T07:36:51;6.07;;;3.28;;
69253;SDS011;56364;41.816;12.448;2022-10-16T07:41:43;8.32;;;3.70;;
69253;SDS011;56364;41.816;12.448;2022-10-16T07:46:35;10.15;;;4.15;;
69253;SDS011;56364;41.816;12.448;2022-10-16T07:49:01;11.38;;;4.07;;
69253;SDS011;56364;41.816;12.448;2022-10-16T07:51:28;14.38;;;4.13;;
69253;SDS011;56364;41.816;12.448;2022-10-16T07:56:20;11.75;;;4.30;;
69253;SDS011;56364;41.816;12.448;2022-10-16T07:58:46;9.18;;;3.55;;
69253;SDS011;56364;41.816;12.448;2022-10-16T08:01:15;10.98;;;4.00;;
69253;SDS011;56364;41.816;12.448;2022-10-16T08:03:45;9.90;;;4.05;;
69253;SDS011;56364;41.816;12.448;2022-10-16T08:06:11;7.88;;;3.95;;
69253;SDS011;56364;41.816;12.448;2022-10-16T08:11:04;8.98;;;3.67;;
69253;SDS011;56364;41.816;12.448;2022-10-16T08:13:30;11.10;;;4.50;;
69253;SDS011;56364;41.816;12.448;2022-10-16T08:15:56;10.95;;;3.80;;
69253;SDS011;56364;41.816;12.448;2022-10-16T08:18:22;13.32;;;4.32;;
69253;SDS011;56364;41.816;12.448;2022-10-16T08:23:14;12.63;;;4.32;;
69253;SDS011;56364;41.816;12.448;2022-10-16T08:25:40;13.85;;;3.55;;
69253;SDS011;56364;41.816;12.448;2022-10-16T08:28:07;7.82;;;3.80;;
69253;SDS011;56364;41.816;12.448;2022-10-16T08:30:34;10.15;;;3.88;;
69253;SDS011;56364;41.816;12.448;2022-10-16T08:33:00;10.93;;;4.18;;
69253;SDS011;56364;41.816;12.448;2022-10-16T08:35:27;13.35;;;5.18;;
69253;SDS011;56364;41.816;12.448;2022-10-16T08:37:53;20.35;;;5.07;;
69253;SDS011;56364;41.816;12.448;2022-10-16T08:40:22;13.07;;;5.22;;
69253;SDS011;56364;41.816;12.448;2022-10-16T08:52:45;9.63;;;4.15;;
69253;SDS011;56364;41.816;12.448;2022-10-16T08:57:57;10.02;;;4.07;;
69253;SDS011;56364;41.816;12.448;2022-10-16T09:00:23;11.68;;;3.80;;
69253;SDS011;56364;41.816;12.448;2022-10-16T09:03:35;12.40;;;4.40;;
69253;SDS011;56364;41.816;12.448;2022-10-16T09:05:57;10.70;;;3.83;;
69253;SDS011;56364;41.816;12.448;2022-10-16T09:13:31;10.70;;;3.65;;
69253;SDS011;56364;41.816;12.448;2022-10-16T09:16:15;8.02;;;3.75;;
69253;SDS011;56364;41.816;12.448;2022-10-16T09:18:48;10.55;;;3.88;;
69253;SDS011;56364;41.816;12.448;2022-10-16T09:21:31;12.82;;;4.65;;
69253;SDS011;56364;41.816;12.448;2022-10-16T09:23:58;11.38;;;4.05;;
69253;SDS011;56364;41.816;12.448;2022-10-16T09:26:25;12.15;;;4.07;;
69253;SDS011;56364;41.816;12.448;2022-10-16T09:28:52;11.50;;;4.57;;
69253;SDS011;56364;41.816;12.448;2022-10-16T09:31:20;11.88;;;4.05;;
69253;SDS011;56364;41.816;12.448;2022-10-16T09:33:53;11.07;;;4.20;;
69253;SDS011;56364;41.816;12.448;2022-10-16T09:36:20;9.52;;;3.63;;
69253;SDS011;56364;41.816;12.448;2022-10-16T09:38:47;8.27;;;3.70;;
69253;SDS011;56364;41.816;12.448;2022-10-16T09:41:16;8.07;;;2.95;;
69253;SDS011;56364;41.816;12.448;2022-10-16T09:48:48;6.88;;;3.08;;
69253;SDS011;56364;41.816;12.448;2022-10-16T09:51:31;7.57;;;3.15;;
69253;SDS011;56364;41.816;12.448;2022-10-16T09:56:25;10.65;;;2.95;;
69253;SDS011;56364;41.816;12.448;2022-10-16T09:58:52;5.38;;;2.50;;
69253;SDS011;56364;41.816;12.448;2022-10-16T10:01:30;11.57;;;3.13;;
69253;SDS011;56364;41.816;12.448;2022-10-16T10:03:57;9.30;;;2.72;;
69253;SDS011;56364;41.816;12.448;2022-10-16T10:06:45;6.72;;;2.55;;
69253;SDS011;56364;41.816;12.448;2022-10-16T10:09:19;9.70;;;2.67;;
69253;SDS011;56364;41.816;12.448;2022-10-16T10:14:22;4.38;;;2.05;;
69253;SDS011;56364;41.816;12.448;2022-10-16T10:16:49;6.80;;;2.22;;
69253;SDS011;56364;41.816;12.448;2022-10-16T10:19:22;3.60;;;1.85;;
69253;SDS011;56364;41.816;12.448;2022-10-16T10:21:54;4.70;;;1.23;;
69253;SDS011;56364;41.816;12.448;2022-10-16T10:24:26;7.60;;;1.80;;
69253;SDS011;56364;41.816;12.448;2022-10-16T10:27:06;6.82;;;2.53;;
69253;SDS011;56364;41.816;12.448;2022-10-16T10:32:13;4.05;;;1.80;;
69253;SDS011;56364;41.816;12.448;2022-10-16T10:39:50;6.68;;;1.88;;
69253;SDS011;56364;41.816;12.448;2022-10-16T10:43:03;5.75;;;1.95;;
69253;SDS011;56364;41.816;12.448;2022-10-16T10:45:16;3.67;;;1.88;;
69253;SDS011;56364;41.816;12.448;2022-10-16T11:05:50;6.25;;;1.60;;
69253;SDS011;56364;41.816;12.448;2022-10-16T11:08:19;4.05;;;1.77;;
69253;SDS011;56364;41.816;12.448;2022-10-16T11:10:54;3.55;;;2.00;;
69253;SDS011;56364;41.816;12.448;2022-10-16T11:13:30;7.32;;;1.52;;
69253;SDS011;56364;41.816;12.448;2022-10-16T11:15:58;6.55;;;1.90;;
69253;SDS011;56364;41.816;12.448;2022-10-16T11:21:14;6.90;;;1.75;;
69253;SDS011;56364;41.816;12.448;2022-10-16T11:23:53;7.60;;;1.85;;
69253;SDS011;56364;41.816;12.448;2022-10-16T11:26:22;4.07;;;1.80;;
69253;SDS011;56364;41.816;12.448;2022-10-16T11:28:56;4.15;;;2.03;;
69253;SDS011;56364;41.816;12.448;2022-10-16T11:36:50;4.00;;;1.70;;
69253;SDS011;56364;41.816;12.448;2022-10-16T11:39:21;6.20;;;1.40;;
69253;SDS011;56364;41.816;12.448;2022-10-16T11:49:29;7.15;;;1.95;;
69253;SDS011;56364;41.816;12.448;2022-10-16T11:57:18;2.95;;;1.92;;
69253;SDS011;56364;41.816;12.448;2022-10-16T12:00:28;3.17;;;1.63;;
69253;SDS011;56364;41.816;12.448;2022-10-16T12:05:27;4.18;;;1.63;;
69253;SDS011;56364;41.816;12.448;2022-10-16T12:08:02;3.25;;;1.60;;
69253;SDS011;56364;41.816;12.448;2022-10-16T12:10:31;3.58;;;2.08;;
69253;SDS011;56364;41.816;12.448;2022-10-16T12:13:02;4.07;;;2.10;;
69253;SDS011;56364;41.816;12.448;2022-10-16T12:15:29;3.38;;;1.52;;
69253;SDS011;56364;41.816;12.448;2022-10-16T12:17:55;3.25;;;1.38;;
69253;SDS011;56364;41.816;12.448;2022-10-16T12:20:23;5.70;;;1.95;;
69253;SDS011;56364;41.816;12.448;2022-10-16T12:22:52;3.92;;;1.67;;
69253;SDS011;56364;41.816;12.448;2022-10-16T12:25:28;4.75;;;1.80;;
69253;SDS011;56364;41.816;12.448;2022-10-16T12:28:40;4.13;;;1.60;;
69253;SDS011;56364;41.816;12.448;2022-10-16T12:30:42;5.18;;;1.60;;
69253;SDS011;56364;41.816;12.448;2022-10-16T12:35:45;3.63;;;1.70;;
69253;SDS011;56364;41.816;12.448;2022-10-16T12:38:18;3.08;;;1.50;;
69253;SDS011;56364;41.816;12.448;2022-10-16T12:40:47;3.22;;;1.45;;
69253;SDS011;56364;41.816;12.448;2022-10-16T12:45:46;4.13;;;1.70;;
69253;SDS011;56364;41.816;12.448;2022-10-16T12:48:20;3.28;;;1.40;;
69253;SDS011;56364;41.816;12.448;2022-10-16T12:50:46;4.43;;;1.73;;
69253;SDS011;56364;41.816;12.448;2022-10-16T12:53:19;5.90;;;1.80;;
69253;SDS011;56364;41.816;12.448;2022-10-16T12:55:55;4.32;;;1.38;;
69253;SDS011;56364;41.816;12.448;2022-10-16T12:58:33;2.88;;;1.40;;
69253;SDS011;56364;41.816;12.448;2022-10-16T13:03:52;3.15;;;1.42;;
69253;SDS011;56364;41.816;12.448;2022-10-16T13:16:23;1.67;;;0.85;;
69253;SDS011;56364;41.816;12.448;2022-10-16T13:18:54;1.73;;;0.98;;
69253;SDS011;56364;41.816;12.448;2022-10-16T13:21:31;6.78;;;1.08;;
69253;SDS011;56364;41.816;12.448;2022-10-16T13:29:09;4.82;;;1.17;;
69253;SDS011;56364;41.816;12.448;2022-10-16T13:31:37;4.78;;;1.00;;
69253;SDS011;56364;41.816;12.448;2022-10-16T13:34:03;3.33;;;1.10;;
69253;SDS011;56364;41.816;12.448;2022-10-16T13:36:35;2.10;;;0.75;;
69253;SDS011;56364;41.816;12.448;2022-10-16T13:41:37;3.60;;;1.20;;
69253;SDS011;56364;41.816;12.448;2022-10-16T13:44:03;5.90;;;1.27;;
69253;SDS011;56364;41.816;12.448;2022-10-16T13:46:29;5.03;;;1.42;;
69253;SDS011;56364;41.816;12.448;2022-10-16T13:49:03;1.88;;;0.90;;
69253;SDS011;56364;41.816;12.448;2022-10-16T13:51:30;4.10;;;1.45;;
69253;SDS011;56364;41.816;12.448;2022-10-16T13:53:57;6.05;;;1.20;;
69253;SDS011;56364;41.816;12.448;2022-10-16T13:56:27;2.28;;;1.20;;
69253;SDS011;56364;41.816;12.448;2022-10-16T13:59:21;3.65;;;0.93;;
69253;SDS011;56364;41.816;12.448;2022-10-16T14:01:43;2.45;;;0.90;;
69253;SDS011;56364;41.816;12.448;2022-10-16T14:04:10;10.38;;;1.20;;
69253;SDS011;56364;41.816;12.448;2022-10-16T14:06:39;3.28;;;0.80;;
69253;SDS011;56364;41.816;12.448;2022-10-16T14:09:07;3.78;;;1.23;;
69253;SDS011;56364;41.816;12.448;2022-10-16T14:11:42;1.85;;;0.80;;
69253;SDS011;56364;41.816;12.448;2022-10-16T14:14:13;3.45;;;1.08;;
69253;SDS011;56364;41.816;12.448;2022-10-16T14:16:40;4.13;;;1.00;;
69253;SDS011;56364;41.816;12.448;2022-10-16T14:19:06;4.18;;;1.10;;
69253;SDS011;56364;41.816;12.448;2022-10-16T14:21:40;2.00;;;1.10;;
69253;SDS011;56364;41.816;12.448;2022-10-16T14:24:10;2.83;;;0.90;;
69253;SDS011;56364;41.816;12.448;2022-10-16T14:26:41;4.57;;;0.88;;
69253;SDS011;56364;41.816;12.448;2022-10-16T14:29:11;2.17;;;0.90;;
69253;SDS011;56364;41.816;12.448;2022-10-16T14:31:38;3.72;;;0.93;;
69253;SDS011;56364;41.816;12.448;2022-10-16T14:34:22;2.33;;;0.90;;
69253;SDS011;56364;41.816;12.448;2022-10-16T14:36:49;1.35;;;0.80;;
69253;SDS011;56364;41.816;12.448;2022-10-16T14:39:17;1.90;;;0.75;;
69253;SDS011;56364;41.816;12.448;2022-10-16T14:41:46;4.53;;;0.95;;
69253;SDS011;56364;41.816;12.448;2022-10-16T14:44:12;1.85;;;0.80;;
69253;SDS011;56364;41.816;12.448;2022-10-16T14:46:42;3.40;;;0.88;;
69253;SDS011;56364;41.816;12.448;2022-10-16T14:51:43;2.10;;;1.00;;
69253;SDS011;56364;41.816;12.448;2022-10-16T14:54:14;0.77;;;0.70;;
69253;SDS011;56364;41.816;12.448;2022-10-16T14:56:59;6.15;;;0.90;;
69253;SDS011;56364;41.816;12.448;2022-10-16T14:59:39;4.47;;;1.10;;
69253;SDS011;56364;41.816;12.448;2022-10-16T15:05:15;3.70;;;1.10;;
69253;SDS011;56364;41.816;12.448;2022-10-16T15:07:44;5.28;;;0.98;;
69253;SDS011;56364;41.816;12.448;2022-10-16T15:10:11;5.15;;;0.70;;
69253;SDS011;56364;41.816;12.448;2022-10-16T15:12:37;4.22;;;0.90;;
69253;SDS011;56364;41.816;12.448;2022-10-16T15:30:36;3.60;;;0.98;;
69253;SDS011;56364;41.816;12.448;2022-10-16T15:33:10;2.83;;;0.80;;
69253;SDS011;56364;41.816;12.448;2022-10-16T15:38:35;3.78;;;1.02;;
69253;SDS011;56364;41.816;12.448;2022-10-16T15:41:01;2.67;;;0.85;;
69253;SDS011;56364;41.816;12.448;2022-10-16T15:43:27;9.60;;;1.10;;
69253;SDS011;56364;41.816;12.448;2022-10-16T15:48:26;6.28;;;1.00;;
69253;SDS011;56364;41.816;12.448;2022-10-16T15:53:50;2.70;;;0.90;;
69253;SDS011;56364;41.816;12.448;2022-10-16T16:06:41;3.42;;;0.60;;
69253;SDS011;56364;41.816;12.448;2022-10-16T16:09:10;4.47;;;1.00;;
69253;SDS011;56364;41.816;12.448;2022-10-16T16:11:36;4.50;;;0.88;;
69253;SDS011;56364;41.816;12.448;2022-10-16T16:14:22;2.35;;;1.13;;
69253;SDS011;56364;41.816;12.448;2022-10-16T16:16:51;4.68;;;1.13;;
69253;SDS011;56364;41.816;12.448;2022-10-16T16:19:17;4.78;;;1.00;;
69253;SDS011;56364;41.816;12.448;2022-10-16T16:21:54;4.53;;;1.08;;
69253;SDS011;56364;41.816;12.448;2022-10-16T16:24:23;2.58;;;0.93;;
69253;SDS011;56364;41.816;12.448;2022-10-16T16:26:49;6.30;;;0.82;;
69253;SDS011;56364;41.816;12.448;2022-10-16T16:29:15;4.53;;;1.38;;
69253;SDS011;56364;41.816;12.448;2022-10-16T16:31:42;4.18;;;1.08;;
69253;SDS011;56364;41.816;12.448;2022-10-16T16:34:08;3.55;;;1.25;;
69253;SDS011;56364;41.816;12.448;2022-10-16T16:36:41;4.50;;;1.42;;
69253;SDS011;56364;41.816;12.448;2022-10-16T16:39:07;5.63;;;1.50;;
69253;SDS011;56364;41.816;12.448;2022-10-16T16:41:35;1.45;;;0.93;;
69253;SDS011;56364;41.816;12.448;2022-10-16T16:44:03;2.00;;;0.85;;
69253;SDS011;56364;41.816;12.448;2022-10-16T16:46:31;3.85;;;1.00;;
69253;SDS011;56364;41.816;12.448;2022-10-16T16:48:58;7.97;;;1.20;;
69253;SDS011;56364;41.816;12.448;2022-10-16T16:51:24;2.72;;;0.95;;
69253;SDS011;56364;41.816;12.448;2022-10-16T16:53:51;3.38;;;1.10;;
69253;SDS011;56364;41.816;12.448;2022-10-16T16:56:17;3.83;;;0.95;;
69253;SDS011;56364;41.816;12.448;2022-10-16T16:58:50;5.63;;;1.00;;
69253;SDS011;56364;41.816;12.448;2022-10-16T17:01:17;1.25;;;0.73;;
69253;SDS011;56364;41.816;12.448;2022-10-16T17:03:43;2.33;;;1.20;;
69253;SDS011;56364;41.816;12.448;2022-10-16T17:06:10;9.15;;;2.08;;
69253;SDS011;56364;41.816;12.448;2022-10-16T17:08:37;3.97;;;0.93;;
69253;SDS011;56364;41.816;12.448;2022-10-16T17:11:11;2.95;;;1.20;;
69253;SDS011;56364;41.816;12.448;2022-10-16T17:13:37;6.18;;;1.33;;
69253;SDS011;56364;41.816;12.448;2022-10-16T17:16:04;6.35;;;1.10;;
69253;SDS011;56364;41.816;12.448;2022-10-16T17:18:30;5.45;;;1.38;;
69253;SDS011;56364;41.816;12.448;2022-10-16T17:21:04;4.82;;;1.20;;
69253;SDS011;56364;41.816;12.448;2022-10-16T17:23:30;3.38;;;0.98;;
69253;SDS011;56364;41.816;12.448;2022-10-16T17:25:59;2.28;;;1.20;;
69253;SDS011;56364;41.816;12.448;2022-10-16T17:28:28;4.03;;;1.55;;
69253;SDS011;56364;41.816;12.448;2022-10-16T17:30:54;5.38;;;1.48;;
69253;SDS011;56364;41.816;12.448;2022-10-16T17:33:20;3.72;;;1.33;;
69253;SDS011;56364;41.816;12.448;2022-10-16T17:35:46;4.72;;;1.50;;
69253;SDS011;56364;41.816;12.448;2022-10-16T17:40:38;2.78;;;1.48;;
69253;SDS011;56364;41.816;12.448;2022-10-16T17:43:07;3.83;;;1.30;;
69253;SDS011;56364;41.816;12.448;2022-10-16T17:47:59;6.90;;;1.23;;
69253;SDS011;56364;41.816;12.448;2022-10-16T17:50:25;7.45;;;1.58;;
69253;SDS011;56364;41.816;12.448;2022-10-16T17:52:51;7.22;;;1.75;;
69253;SDS011;56364;41.816;12.448;2022-10-16T17:57:44;3.60;;;1.42;;
69253;SDS011;56364;41.816;12.448;2022-10-16T18:00:10;8.38;;;2.20;;
69253;SDS011;56364;41.816;12.448;2022-10-16T18:02:36;6.57;;;1.90;;
69253;SDS011;56364;41.816;12.448;2022-10-16T18:05:06;10.05;;;2.10;;
69253;SDS011;56364;41.816;12.448;2022-10-16T18:07:33;5.55;;;1.35;;
69253;SDS011;56364;41.816;12.448;2022-10-16T18:09:59;4.57;;;1.60;;
69253;SDS011;56364;41.816;12.448;2022-10-16T18:12:27;4.10;;;1.50;;
69253;SDS011;56364;41.816;12.448;2022-10-16T18:14:54;5.82;;;1.77;;
69253;SDS011;56364;41.816;12.448;2022-10-16T18:17:23;4.53;;;1.65;;